This is the latest recevied weather packets stored in our database for station/object N1ORT. If no packets are shown the sender has not sent any weather packets the latest 10 day(s).
| Time | Temp. | Humidity | Pressure | Rain* | Wind** | Luminosity | Snow |
|---|---|---|---|---|---|---|---|
| 1778016523 | 27.22° C | 35% | 1003.2 hPa | 0 mm | - | 145 W/m² | - |
| 1778016221 | 27.22° C | 36% | 1003 hPa | 0 mm | - | 168 W/m² | - |
| 1778015916 | 26.67° C | 36% | 1003.3 hPa | 0 mm | - | 100 W/m² | - |
| 1778015614 | 27.22° C | 35% | 1003.3 hPa | 0 mm | - | 106 W/m² | - |
| 1778015311 | 27.78° C | 35% | 1003 hPa | 0 mm | - | 149 W/m² | - |
| 1778015008 | 27.78° C | 36% | 1003 hPa | 0 mm | - | 217 W/m² | - |
| 1778014704 | 27.22° C | 36% | 1003.1 hPa | 0 mm | - | 289 W/m² | - |
| 1778014403 | 26.67° C | 36% | 1002.7 hPa | 0 mm | - | 142 W/m² | - |
| 1778014099 | 27.22° C | 38% | 1003 hPa | 0 mm | - | 131 W/m² | - |
| 1778013797 | 27.22° C | 36% | 1002.7 hPa | 0 mm | - | 128 W/m² | - |
| 1778013494 | 27.78° C | 36% | 1002.8 hPa | 0 mm | - | 275 W/m² | - |
| 1778013191 | 27.22° C | 37% | 1003 hPa | 0 mm | - | 148 W/m² | - |
| 1778012887 | 27.78° C | 37% | 1002.8 hPa | 0 mm | - | 272 W/m² | - |
| 1778012583 | 27.22° C | 36% | 1003 hPa | 0 mm | - | 174 W/m² | - |
| 1778012280 | 27.78° C | 36% | 1003.1 hPa | 0 mm | - | 108 W/m² | - |
| 1778011977 | 28.33° C | 37% | 1003.1 hPa | 0 mm | - | 113 W/m² | - |
| 1778011676 | 28.33° C | 35% | 1003 hPa | 0 mm | - | 170 W/m² | - |
| 1778011372 | 28.33° C | 35% | 1003 hPa | 0 mm | - | 385 W/m² | - |
| 1778011067 | 28.89° C | 35% | 1003.1 hPa | 0 mm | - | 561 W/m² | - |
| 1778010766 | 28.89° C | 33% | 1003.1 hPa | 0 mm | - | 625 W/m² | - |
| 1778010462 | 28.89° C | 35% | 1003 hPa | 0 mm | - | 612 W/m² | - |
| 1778010159 | 28.89° C | 36% | 1002.8 hPa | 0 mm | - | 647 W/m² | - |
| 1778009855 | 28.33° C | 35% | 1003.1 hPa | 0 mm | - | 167 W/m² | - |
| 1778009552 | 27.78° C | 37% | 1003.1 hPa | 0 mm | - | 181 W/m² | - |
| 1778009251 | 29.44° C | 36% | 1003.2 hPa | 0 mm | - | 708 W/m² | - |
* Rain latest hour (hover to see other rain measurements)
** Current wind speed in m/s (hover to see current wind gust speed)